createdAt,value
2022-11-14T00:02:23.189Z,4.50
2022-11-14T00:07:43.473Z,4.31
2022-11-14T00:13:03.357Z,4.02
2022-11-14T00:18:23.741Z,3.94
2022-11-14T00:23:43.517Z,4.09
2022-11-14T00:29:04.043Z,3.98
2022-11-14T00:34:24.241Z,3.85
2022-11-14T00:39:44.843Z,3.89
2022-11-14T00:45:05.651Z,3.92
2022-11-14T00:50:25.613Z,4.15
2022-11-14T00:55:45.533Z,3.88
2022-11-14T01:01:05.888Z,3.78
2022-11-14T01:06:26.258Z,3.87
2022-11-14T01:11:46.504Z,3.51
2022-11-14T01:17:06.892Z,3.32
2022-11-14T01:22:26.961Z,3.28
2022-11-14T01:27:47.132Z,3.20
2022-11-14T01:33:07.831Z,3.03
2022-11-14T01:38:28.013Z,3.04
2022-11-14T01:43:48.614Z,3.06
2022-11-14T01:49:22.254Z,3.20
2022-11-14T01:54:46.707Z,3.37
2022-11-14T02:00:09.754Z,3.44
2022-11-14T02:05:31.307Z,3.23
2022-11-14T02:10:51.223Z,3.14
2022-11-14T02:16:11.238Z,3.05
2022-11-14T02:21:31.502Z,2.87
2022-11-14T02:26:51.440Z,2.91
2022-11-14T02:32:11.734Z,2.92
2022-11-14T02:37:32.078Z,3.04
2022-11-14T02:42:52.364Z,3.17
2022-11-14T02:48:12.312Z,3.00
2022-11-14T02:53:32.606Z,2.80
2022-11-14T02:58:52.764Z,2.82
2022-11-14T03:04:13.215Z,2.75
2022-11-14T03:09:33.310Z,2.72
2022-11-14T03:14:53.306Z,2.68
2022-11-14T03:20:13.503Z,2.84
2022-11-14T03:25:33.759Z,2.94
2022-11-14T03:30:53.870Z,2.83
2022-11-14T03:36:14.097Z,2.79
2022-11-14T03:41:34.528Z,2.86
2022-11-14T03:46:54.862Z,2.84
2022-11-14T03:52:15.030Z,2.97
2022-11-14T03:57:35.024Z,2.73
2022-11-14T04:02:56.053Z,2.31
2022-11-14T04:08:17.613Z,1.99
2022-11-14T04:13:37.514Z,1.98
2022-11-14T04:18:57.669Z,2.11
2022-11-14T04:24:17.472Z,2.25
2022-11-14T04:29:37.760Z,2.25
2022-11-14T04:34:57.926Z,2.20
2022-11-14T04:40:17.874Z,2.21
2022-11-14T04:45:38.027Z,2.25
2022-11-14T04:50:58.304Z,2.43
2022-11-14T04:56:18.306Z,2.95
2022-11-14T05:01:38.570Z,2.88
2022-11-14T05:06:59.061Z,3.00
2022-11-14T05:12:18.965Z,3.19
2022-11-14T05:17:39.253Z,3.53
2022-11-14T05:22:59.340Z,3.74
2022-11-14T05:28:19.830Z,4.23
2022-11-14T05:33:39.752Z,4.67
2022-11-14T05:38:59.958Z,4.44
2022-11-14T05:44:20.217Z,4.20
2022-11-14T05:49:40.194Z,4.19
2022-11-14T05:55:00.441Z,4.52
2022-11-14T06:00:20.625Z,4.63
2022-11-14T06:05:41.128Z,4.54
2022-11-14T06:11:12.485Z,4.31
2022-11-14T06:16:32.617Z,3.92
2022-11-14T06:21:52.842Z,3.41
2022-11-14T06:27:12.826Z,3.16
2022-11-14T06:32:33.133Z,3.45
2022-11-14T06:37:53.709Z,3.82
2022-11-14T06:43:13.626Z,3.98
2022-11-14T06:48:34.415Z,4.11
2022-11-14T06:53:54.428Z,4.79
2022-11-14T06:59:14.529Z,5.18
2022-11-14T07:04:34.679Z,5.32
2022-11-14T07:09:54.651Z,5.41
2022-11-14T07:15:14.733Z,5.39
2022-11-14T07:20:34.986Z,5.63
2022-11-14T07:25:54.955Z,5.79
2022-11-14T07:31:17.564Z,6.25
2022-11-14T07:36:37.861Z,6.61
2022-11-14T07:41:57.688Z,6.74
2022-11-14T07:47:17.554Z,6.96
2022-11-14T07:52:37.519Z,7.08
2022-11-14T07:58:01.149Z,6.98
2022-11-14T08:03:21.369Z,6.87
2022-11-14T08:08:41.830Z,6.89
2022-11-14T08:14:01.903Z,6.84
2022-11-14T08:19:22.181Z,6.88
2022-11-14T08:24:42.099Z,6.95
2022-11-14T08:30:02.316Z,6.97
2022-11-14T08:35:23.065Z,7.06
2022-11-14T08:40:43.148Z,7.04
2022-11-14T08:46:05.512Z,6.97
2022-11-14T08:51:25.904Z,7.21
2022-11-14T08:56:46.074Z,7.48
2022-11-14T09:02:06.128Z,7.53
2022-11-14T09:07:26.427Z,7.39
2022-11-14T09:12:46.648Z,7.46
2022-11-14T09:18:06.985Z,7.69
2022-11-14T09:23:27.332Z,7.90
2022-11-14T09:28:48.626Z,8.09
2022-11-14T09:34:08.513Z,8.06
2022-11-14T09:39:28.776Z,8.18
2022-11-14T09:45:00.585Z,8.23
2022-11-14T09:50:27.678Z,8.32
2022-11-14T09:55:47.734Z,8.34
2022-11-14T10:01:38.933Z,8.38
2022-11-14T10:07:17.525Z,8.35
2022-11-14T10:12:59.795Z,8.84
2022-11-14T10:18:20.143Z,8.79
2022-11-14T10:23:58.202Z,8.72
2022-11-14T10:29:51.458Z,8.57
2022-11-14T10:35:29.815Z,8.73
2022-11-14T10:40:59.081Z,8.83
2022-11-14T10:46:21.704Z,8.95
2022-11-14T10:51:46.192Z,9.12
2022-11-14T10:57:15.390Z,9.13
2022-11-14T11:02:56.126Z,9.34
2022-11-14T11:08:42.753Z,9.46
2022-11-14T11:14:01.707Z,9.58
2022-11-14T11:19:26.946Z,9.29
2022-11-14T11:24:47.242Z,9.11
2022-11-14T11:30:17.981Z,9.41
2022-11-14T11:35:40.391Z,9.38
2022-11-14T11:42:06.144Z,9.36
2022-11-14T11:47:13.667Z,9.49
2022-11-14T11:52:35.827Z,9.73
2022-11-14T11:58:02.263Z,9.90
2022-11-14T12:03:25.389Z,10.12
2022-11-14T12:09:16.771Z,9.78
2022-11-14T12:14:48.534Z,9.95
2022-11-14T12:20:14.698Z,9.80
2022-11-14T12:25:56.624Z,9.78
2022-11-14T12:31:17.965Z,9.90
2022-11-14T12:36:42.938Z,9.82
2022-11-14T12:42:10.411Z,9.92
2022-11-14T12:47:30.554Z,9.95
2022-11-14T12:52:52.367Z,10.06
2022-11-14T12:58:23.298Z,10.02
2022-11-14T13:04:00.656Z,10.03
2022-11-14T13:09:20.570Z,10.05
2022-11-14T13:14:52.901Z,9.95
2022-11-14T13:20:22.275Z,9.88
2022-11-14T13:25:42.515Z,9.76
2022-11-14T13:31:15.085Z,9.74
2022-11-14T13:36:39.271Z,9.80
2022-11-14T13:42:09.315Z,9.60
2022-11-14T13:47:39.257Z,9.76
2022-11-14T13:52:59.401Z,9.78
2022-11-14T13:58:51.224Z,9.81
2022-11-14T14:04:29.501Z,9.74
2022-11-14T14:09:55.365Z,9.66
2022-11-14T14:15:44.809Z,9.73
2022-11-14T14:21:14.113Z,9.87
2022-11-14T14:27:07.945Z,9.70
2022-11-14T14:32:28.312Z,9.74
2022-11-14T14:37:53.527Z,9.75
2022-11-14T14:43:33.877Z,9.69
2022-11-14T14:48:54.204Z,9.59
2022-11-14T14:54:26.709Z,9.64
2022-11-14T14:59:46.965Z,9.58
2022-11-14T15:05:07.206Z,9.64
2022-11-14T15:10:31.879Z,9.75
2022-11-14T15:15:53.010Z,9.71
2022-11-14T15:21:23.000Z,9.61
2022-11-14T15:26:48.492Z,9.63
2022-11-14T15:32:19.058Z,9.52
2022-11-14T15:37:39.387Z,9.52
2022-11-14T15:42:59.304Z,9.54
2022-11-14T15:48:19.526Z,9.61
2022-11-14T15:53:39.380Z,9.61
2022-11-14T15:58:59.739Z,9.59
2022-11-14T16:04:22.880Z,9.62
2022-11-14T16:09:43.255Z,9.64
2022-11-14T16:15:03.204Z,9.75
2022-11-14T16:20:28.936Z,9.70
2022-11-14T16:25:49.111Z,9.76
2022-11-14T16:31:14.029Z,9.67
2022-11-14T16:36:34.196Z,9.62
2022-11-14T16:42:00.228Z,9.57
2022-11-14T16:47:20.646Z,9.53
2022-11-14T16:52:40.868Z,9.63
2022-11-14T16:58:01.307Z,9.69
2022-11-14T17:03:21.839Z,9.63
2022-11-14T17:08:41.775Z,9.68
2022-11-14T17:14:01.967Z,9.67
2022-11-14T17:19:21.865Z,9.77
2022-11-14T17:24:41.863Z,9.64
2022-11-14T17:30:02.211Z,9.78
2022-11-14T17:35:29.816Z,9.79
2022-11-14T17:40:56.899Z,9.82
2022-11-14T17:46:17.095Z,9.74
2022-11-14T17:51:37.390Z,9.65
2022-11-14T17:56:57.374Z,9.76
2022-11-14T18:02:17.494Z,9.68
2022-11-14T18:07:37.983Z,9.71
2022-11-14T18:12:58.499Z,9.58
2022-11-14T18:18:18.904Z,9.46
2022-11-14T18:23:39.225Z,9.47
2022-11-14T18:29:02.508Z,9.39
2022-11-14T18:34:22.501Z,9.18
2022-11-14T18:39:42.533Z,8.93
2022-11-14T18:45:03.152Z,8.88
2022-11-14T18:50:23.327Z,8.67
2022-11-14T18:55:43.587Z,8.49
2022-11-14T19:01:10.172Z,8.39
2022-11-14T19:06:32.158Z,8.40
2022-11-14T19:11:52.338Z,8.40
2022-11-14T19:17:12.513Z,8.52
2022-11-14T19:22:32.813Z,8.64
2022-11-14T19:27:52.922Z,8.65
2022-11-14T19:33:13.257Z,8.77
2022-11-14T19:38:33.736Z,8.81
2022-11-14T19:43:55.402Z,8.75
2022-11-14T19:49:15.751Z,8.85
2022-11-14T19:54:35.908Z,8.90
2022-11-14T19:59:55.829Z,9.04
2022-11-14T20:05:15.899Z,9.25
2022-11-14T20:10:39.476Z,9.25
2022-11-14T20:16:10.068Z,9.23
2022-11-14T20:21:32.682Z,9.20
2022-11-14T20:26:52.801Z,9.17
2022-11-14T20:32:15.792Z,9.18
2022-11-14T20:37:36.400Z,9.21
2022-11-14T20:42:57.217Z,9.31
2022-11-14T20:48:17.393Z,9.38
2022-11-14T20:53:37.994Z,9.36
2022-11-14T20:58:58.094Z,9.42
2022-11-14T21:04:18.564Z,9.51
2022-11-14T21:09:41.730Z,9.70
2022-11-14T21:15:01.901Z,9.86
2022-11-14T21:20:22.095Z,9.94
2022-11-14T21:25:42.485Z,10.04
2022-11-14T21:31:05.200Z,10.14
2022-11-14T21:36:44.271Z,10.19
2022-11-14T21:42:05.669Z,10.25
2022-11-14T21:47:25.786Z,10.30
2022-11-14T21:52:45.739Z,10.27
2022-11-14T21:58:05.828Z,10.27
2022-11-14T22:03:25.845Z,10.22
2022-11-14T22:08:45.892Z,10.22
2022-11-14T22:14:06.853Z,10.00
2022-11-14T22:19:27.087Z,10.05
2022-11-14T22:24:47.041Z,10.04
2022-11-14T22:30:07.567Z,10.11
2022-11-14T22:35:27.930Z,10.29
2022-11-14T22:40:47.823Z,10.58
2022-11-14T22:46:11.025Z,10.70
2022-11-14T22:51:30.885Z,10.84
2022-11-14T22:56:50.853Z,10.83
2022-11-14T23:02:10.609Z,10.95
2022-11-14T23:07:30.762Z,11.06
2022-11-14T23:12:50.995Z,11.15
2022-11-14T23:18:11.569Z,11.20
2022-11-14T23:23:32.105Z,11.32
2022-11-14T23:28:52.700Z,11.31
2022-11-14T23:34:12.734Z,11.35
2022-11-14T23:39:32.751Z,11.30
2022-11-14T23:44:52.624Z,11.31
2022-11-14T23:50:12.531Z,11.34
2022-11-14T23:55:32.574Z,11.48
